createdAt,value
2018-10-12T00:00:00.818Z,0.00
2018-10-12T00:01:01.049Z,0.00
2018-10-12T00:02:01.271Z,0.00
2018-10-12T00:03:01.498Z,0.00
2018-10-12T00:04:01.725Z,0.00
2018-10-12T00:05:01.959Z,0.00
2018-10-12T00:06:02.182Z,0.00
2018-10-12T00:07:02.447Z,0.00
2018-10-12T00:08:02.636Z,0.00
2018-10-12T00:09:02.863Z,0.00
2018-10-12T00:10:03.088Z,0.00
2018-10-12T00:11:03.324Z,0.00
2018-10-12T00:12:03.548Z,0.00
2018-10-12T00:13:03.778Z,0.00
2018-10-12T00:14:03.997Z,0.00
2018-10-12T00:15:04.227Z,0.00
2018-10-12T00:16:04.452Z,0.00
2018-10-12T00:17:04.680Z,0.00
2018-10-12T00:18:04.911Z,0.00
2018-10-12T00:19:05.137Z,0.00
2018-10-12T00:20:05.363Z,0.00
2018-10-12T00:21:05.591Z,0.00
2018-10-12T00:22:05.806Z,0.00
2018-10-12T00:23:06.033Z,0.00
2018-10-12T00:24:06.260Z,0.00
2018-10-12T00:25:06.492Z,0.00
2018-10-12T00:26:06.715Z,0.00
2018-10-12T00:27:06.941Z,0.00
2018-10-12T00:28:07.171Z,0.00
2018-10-12T00:29:07.400Z,0.00
2018-10-12T00:30:07.629Z,0.00
2018-10-12T00:31:07.854Z,0.00
2018-10-12T00:32:08.073Z,0.00
2018-10-12T00:33:08.294Z,0.00
2018-10-12T00:34:08.519Z,0.00
2018-10-12T00:35:08.745Z,0.00
2018-10-12T00:36:08.972Z,0.00
2018-10-12T00:37:09.200Z,0.00
2018-10-12T00:38:09.467Z,0.00
2018-10-12T00:39:09.659Z,0.00
2018-10-12T00:40:09.888Z,0.00
2018-10-12T00:41:10.115Z,0.00
2018-10-12T00:42:10.341Z,0.00
2018-10-12T00:43:10.569Z,0.00
2018-10-12T00:44:10.796Z,0.00
2018-10-12T00:45:11.023Z,0.00
2018-10-12T00:46:11.253Z,0.00
2018-10-12T00:47:11.480Z,0.00
2018-10-12T00:48:11.713Z,0.00
2018-10-12T00:49:11.939Z,0.00
2018-10-12T00:50:12.165Z,0.00
2018-10-12T00:51:12.392Z,0.00
2018-10-12T00:52:12.630Z,0.00
2018-10-12T00:53:12.858Z,0.00
2018-10-12T00:54:13.074Z,0.00
2018-10-12T00:55:13.304Z,0.00
2018-10-12T00:56:13.533Z,0.00
2018-10-12T00:57:13.764Z,0.00
2018-10-12T00:58:13.989Z,0.00
2018-10-12T00:59:14.223Z,0.00
2018-10-12T01:00:14.448Z,0.00
2018-10-12T01:01:14.676Z,0.00
2018-10-12T01:02:14.904Z,0.00
2018-10-12T01:03:15.131Z,0.00
2018-10-12T01:04:15.361Z,0.00
2018-10-12T01:05:15.590Z,0.00
2018-10-12T01:06:15.814Z,0.00
2018-10-12T01:07:16.045Z,0.00
2018-10-12T01:08:16.273Z,0.00
2018-10-12T01:09:16.491Z,0.00
2018-10-12T01:10:16.718Z,0.00
2018-10-12T01:11:16.953Z,0.00
2018-10-12T01:12:17.244Z,0.00
2018-10-12T01:13:17.403Z,0.00
2018-10-12T01:14:17.627Z,0.00
2018-10-12T01:15:17.855Z,0.00
2018-10-12T01:16:18.080Z,0.00
2018-10-12T01:17:18.308Z,0.00
2018-10-12T01:18:18.536Z,0.00
2018-10-12T01:19:18.765Z,0.00
2018-10-12T01:20:18.989Z,0.00
2018-10-12T01:21:19.219Z,0.00
2018-10-12T01:22:19.449Z,0.00
2018-10-12T01:23:19.670Z,0.00
2018-10-12T01:24:19.898Z,0.00
2018-10-12T01:25:20.126Z,0.00
2018-10-12T01:26:20.401Z,0.00
2018-10-12T01:27:20.582Z,0.00
2018-10-12T01:28:20.810Z,0.00
2018-10-12T01:29:21.035Z,0.00
2018-10-12T01:30:21.311Z,0.00
2018-10-12T01:31:21.537Z,0.00
2018-10-12T01:32:21.764Z,0.00
2018-10-12T01:33:21.992Z,0.00
2018-10-12T01:34:22.220Z,0.00
2018-10-12T01:35:22.449Z,0.00
2018-10-12T01:36:22.679Z,0.00
2018-10-12T01:37:22.908Z,0.00
2018-10-12T01:38:23.134Z,0.00
2018-10-12T01:39:23.358Z,0.00
2018-10-12T01:40:23.585Z,0.00
2018-10-12T01:41:23.808Z,0.00
2018-10-12T01:42:24.042Z,0.00
2018-10-12T01:43:24.262Z,0.00
2018-10-12T01:44:24.484Z,0.00
2018-10-12T01:45:24.718Z,0.00
2018-10-12T01:46:24.942Z,0.00
2018-10-12T01:47:25.170Z,0.00
2018-10-12T01:48:25.397Z,0.00
2018-10-12T01:49:25.626Z,0.00
2018-10-12T01:50:25.854Z,0.00
2018-10-12T01:51:26.073Z,0.00
2018-10-12T01:52:26.299Z,0.00
2018-10-12T01:53:26.526Z,0.00
2018-10-12T01:54:26.756Z,0.00
2018-10-12T01:55:26.982Z,0.00
2018-10-12T01:56:27.208Z,0.00
2018-10-12T01:57:27.435Z,0.00
2018-10-12T01:58:27.664Z,0.00
2018-10-12T01:59:27.893Z,0.00
2018-10-12T02:00:28.121Z,0.00
2018-10-12T02:01:28.346Z,0.00
2018-10-12T02:02:28.573Z,0.00
2018-10-12T02:03:28.801Z,0.00
2018-10-12T02:04:29.028Z,0.00
2018-10-12T02:05:29.258Z,0.00
2018-10-12T02:06:29.482Z,0.00
2018-10-12T02:07:29.712Z,0.00
2018-10-12T02:08:29.939Z,0.00
2018-10-12T02:09:30.167Z,0.00
2018-10-12T02:10:30.396Z,0.00
2018-10-12T02:11:30.627Z,0.00
2018-10-12T02:12:30.849Z,0.00
2018-10-12T02:13:31.076Z,0.00
2018-10-12T02:14:31.307Z,0.00
2018-10-12T02:15:31.528Z,0.00
2018-10-12T02:16:31.758Z,0.00
2018-10-12T02:17:31.983Z,0.00
2018-10-12T02:18:32.214Z,0.00
2018-10-12T02:19:32.437Z,0.00
2018-10-12T02:20:32.664Z,0.00
2018-10-12T02:21:32.895Z,0.00
2018-10-12T02:22:33.124Z,0.00
2018-10-12T02:23:33.348Z,0.00
2018-10-12T02:24:33.576Z,0.00
2018-10-12T02:25:33.806Z,0.00
2018-10-12T02:26:34.030Z,0.00
2018-10-12T02:27:34.256Z,0.00
2018-10-12T02:28:34.487Z,0.00
2018-10-12T02:29:34.713Z,0.00
2018-10-12T02:30:34.941Z,0.00
2018-10-12T02:31:35.168Z,0.00
2018-10-12T02:32:35.394Z,0.00
2018-10-12T02:33:35.630Z,0.00
2018-10-12T02:34:35.854Z,0.00
2018-10-12T02:35:36.087Z,0.00
2018-10-12T02:36:36.310Z,0.00
2018-10-12T02:37:36.540Z,0.00
2018-10-12T02:38:36.762Z,0.00
2018-10-12T02:39:36.990Z,0.00
2018-10-12T02:40:37.218Z,0.00
2018-10-12T02:41:37.451Z,0.00
2018-10-12T02:42:37.681Z,0.00
2018-10-12T02:43:37.903Z,0.00
2018-10-12T02:44:38.132Z,0.00
2018-10-12T02:45:38.358Z,0.00
2018-10-12T02:46:38.588Z,0.00
2018-10-12T02:47:38.815Z,0.00
2018-10-12T02:48:39.043Z,0.00
2018-10-12T02:49:39.272Z,0.00
2018-10-12T02:50:39.498Z,0.00
2018-10-12T02:51:39.730Z,0.00
2018-10-12T02:52:39.954Z,0.00
2018-10-12T02:53:40.182Z,0.00
2018-10-12T02:54:40.409Z,0.00
2018-10-12T02:55:40.632Z,0.00
2018-10-12T02:56:40.863Z,0.00
2018-10-12T02:57:41.092Z,0.00
2018-10-12T02:58:41.322Z,0.00
2018-10-12T02:59:41.548Z,0.00
2018-10-12T03:00:41.781Z,0.00
2018-10-12T03:01:41.998Z,0.00
2018-10-12T03:02:42.227Z,0.00
2018-10-12T03:03:42.455Z,0.00
2018-10-12T03:04:42.689Z,0.00
2018-10-12T03:05:42.914Z,0.00
2018-10-12T03:06:43.143Z,0.00
2018-10-12T03:07:43.364Z,0.00
2018-10-12T03:08:43.592Z,0.00
2018-10-12T03:09:43.825Z,0.00
2018-10-12T03:10:44.055Z,0.00
2018-10-12T03:11:44.281Z,0.00
2018-10-12T03:12:44.507Z,0.00
2018-10-12T03:13:44.738Z,0.00
2018-10-12T03:14:44.957Z,0.00
2018-10-12T03:15:45.184Z,0.00
2018-10-12T03:16:45.412Z,0.00
2018-10-12T03:17:45.638Z,0.00
2018-10-12T03:18:45.865Z,0.00
2018-10-12T03:19:46.092Z,0.00
2018-10-12T03:20:46.318Z,0.00
2018-10-12T03:21:46.544Z,0.00
2018-10-12T03:22:46.772Z,0.00
2018-10-12T03:23:46.998Z,0.00
2018-10-12T03:24:47.227Z,0.00
2018-10-12T03:25:47.454Z,0.00
2018-10-12T03:26:47.685Z,0.00
2018-10-12T03:27:47.911Z,0.00
2018-10-12T03:28:48.141Z,0.00
2018-10-12T03:29:48.371Z,0.00
2018-10-12T03:30:48.593Z,0.00
2018-10-12T03:31:48.825Z,0.00
2018-10-12T03:32:49.053Z,0.00
2018-10-12T03:33:49.278Z,0.00
2018-10-12T03:34:49.506Z,0.00
2018-10-12T03:35:49.733Z,0.00
2018-10-12T03:36:49.957Z,0.00
2018-10-12T03:37:50.186Z,0.00
2018-10-12T03:38:50.414Z,0.00
2018-10-12T03:39:50.640Z,0.00
2018-10-12T03:40:50.868Z,0.00
2018-10-12T03:41:51.100Z,0.00
2018-10-12T03:42:51.325Z,0.00
2018-10-12T03:43:51.558Z,0.00
2018-10-12T03:44:51.789Z,0.00
2018-10-12T03:45:52.009Z,0.00
2018-10-12T03:46:52.236Z,0.00
2018-10-12T03:47:52.462Z,0.00
2018-10-12T03:48:52.688Z,0.00
2018-10-12T03:49:52.904Z,0.00
2018-10-12T03:50:53.137Z,0.00
2018-10-12T03:51:53.360Z,0.00
2018-10-12T03:52:53.594Z,0.00
2018-10-12T03:53:53.796Z,0.00
2018-10-12T03:54:54.030Z,0.00
2018-10-12T03:55:54.240Z,0.00
2018-10-12T03:56:54.475Z,0.00
2018-10-12T03:57:54.693Z,0.00
2018-10-12T03:58:54.917Z,0.00
2018-10-12T03:59:55.140Z,0.00
2018-10-12T04:00:55.365Z,0.00
2018-10-12T04:01:55.591Z,0.00
2018-10-12T04:02:55.927Z,0.00
2018-10-12T04:03:56.044Z,0.00
2018-10-12T04:04:56.275Z,0.00
2018-10-12T04:05:56.504Z,0.00
2018-10-12T04:06:56.734Z,0.00
2018-10-12T04:07:56.964Z,0.00
2018-10-12T04:08:57.194Z,0.00
2018-10-12T04:09:57.422Z,0.00
2018-10-12T04:10:57.647Z,0.00
2018-10-12T04:11:57.875Z,0.00
2018-10-12T04:12:58.100Z,0.00
2018-10-12T04:13:58.328Z,0.00
2018-10-12T04:14:58.552Z,0.00
2018-10-12T04:15:58.775Z,0.00
2018-10-12T04:16:59.003Z,0.00
2018-10-12T04:17:59.232Z,0.00
2018-10-12T04:18:59.454Z,0.00
2018-10-12T04:19:59.687Z,0.00
2018-10-12T04:20:59.915Z,0.00
2018-10-12T04:22:00.148Z,0.00
2018-10-12T04:23:00.370Z,0.00
2018-10-12T04:24:00.600Z,0.00
2018-10-12T04:25:00.827Z,0.00
2018-10-12T04:26:01.052Z,0.00
2018-10-12T04:27:01.280Z,0.00
2018-10-12T04:28:01.508Z,0.00
2018-10-12T04:29:01.736Z,0.00
2018-10-12T04:30:01.963Z,0.00
2018-10-12T04:31:02.194Z,0.00
2018-10-12T04:32:02.416Z,0.00
2018-10-12T04:33:02.644Z,0.00
2018-10-12T04:34:02.883Z,0.00
2018-10-12T04:35:03.097Z,0.00
2018-10-12T04:36:03.324Z,0.00
2018-10-12T04:37:03.550Z,0.00
2018-10-12T04:38:03.777Z,0.00
2018-10-12T04:39:04.004Z,0.00
2018-10-12T04:40:04.241Z,0.00
2018-10-12T04:41:04.462Z,0.00
2018-10-12T04:42:04.695Z,0.00
2018-10-12T04:43:04.914Z,0.00
2018-10-12T04:44:05.139Z,0.00
2018-10-12T04:45:05.370Z,0.00
2018-10-12T04:46:05.594Z,0.00
2018-10-12T04:47:05.826Z,0.00
2018-10-12T04:48:06.049Z,0.00
2018-10-12T04:49:06.278Z,0.00
2018-10-12T04:50:06.499Z,0.00
2018-10-12T04:51:06.723Z,0.00
2018-10-12T04:52:06.955Z,0.00
2018-10-12T04:53:07.170Z,0.00
2018-10-12T04:54:07.401Z,0.00
2018-10-12T04:55:07.624Z,0.00
2018-10-12T04:56:07.856Z,0.00
2018-10-12T04:57:08.079Z,0.00
2018-10-12T04:58:08.317Z,0.00
2018-10-12T04:59:08.528Z,0.00
2018-10-12T05:00:08.759Z,0.00
2018-10-12T05:01:09.052Z,0.00
2018-10-12T05:02:09.209Z,0.00
2018-10-12T05:03:09.473Z,0.00
2018-10-12T05:04:09.678Z,0.00
2018-10-12T05:05:09.898Z,0.00
2018-10-12T05:06:10.097Z,0.00
2018-10-12T05:07:10.326Z,0.00
2018-10-12T05:08:10.554Z,0.00
2018-10-12T05:09:10.785Z,0.00
2018-10-12T05:10:11.010Z,0.00
2018-10-12T05:11:11.233Z,0.00
2018-10-12T05:12:11.461Z,0.00
2018-10-12T05:13:11.687Z,0.00
2018-10-12T05:14:11.912Z,0.00
2018-10-12T05:15:12.140Z,0.00
2018-10-12T05:16:12.366Z,0.00
2018-10-12T05:17:12.593Z,0.00
2018-10-12T05:18:12.821Z,0.00
2018-10-12T05:19:13.048Z,0.00
2018-10-12T05:20:13.274Z,0.00
2018-10-12T05:21:13.499Z,0.00
2018-10-12T05:22:13.776Z,0.00
2018-10-12T05:23:13.957Z,0.00
2018-10-12T05:24:14.189Z,0.00
2018-10-12T05:25:14.409Z,0.00
2018-10-12T05:26:14.635Z,0.00
2018-10-12T05:27:14.862Z,0.00
2018-10-12T05:28:15.089Z,5.63
2018-10-12T05:29:15.316Z,5.63
2018-10-12T05:30:15.635Z,5.63
2018-10-12T05:31:15.770Z,5.63
2018-10-12T05:32:15.996Z,5.63
2018-10-12T05:33:16.224Z,5.63
2018-10-12T05:34:16.451Z,5.63
2018-10-12T05:35:16.679Z,11.25
2018-10-12T05:36:16.910Z,11.25
2018-10-12T05:37:17.141Z,11.25
2018-10-12T05:38:17.359Z,11.25
2018-10-12T05:39:17.588Z,11.25
2018-10-12T05:40:17.816Z,16.88
2018-10-12T05:41:18.041Z,16.88
2018-10-12T05:42:18.267Z,16.88
2018-10-12T05:43:18.641Z,16.88
2018-10-12T05:44:18.721Z,22.50
2018-10-12T05:45:18.945Z,22.50
2018-10-12T05:46:19.172Z,28.13
2018-10-12T05:47:19.403Z,28.13
2018-10-12T05:48:19.635Z,28.13
2018-10-12T05:49:19.861Z,33.75
2018-10-12T05:50:20.089Z,33.75
2018-10-12T05:51:20.314Z,39.38
2018-10-12T05:52:20.542Z,39.38
2018-10-12T05:53:20.770Z,45.00
2018-10-12T05:54:20.996Z,45.00
2018-10-12T05:55:21.224Z,45.00
2018-10-12T05:56:21.451Z,50.63
2018-10-12T05:57:21.680Z,50.63
2018-10-12T05:58:21.906Z,56.25
2018-10-12T05:59:22.137Z,56.25
2018-10-12T06:00:22.358Z,61.88
2018-10-12T06:01:22.665Z,61.88
2018-10-12T06:02:22.814Z,67.50
2018-10-12T06:03:23.041Z,67.50
2018-10-12T06:04:23.268Z,73.13
2018-10-12T06:05:23.495Z,73.13
2018-10-12T06:06:23.723Z,78.75
2018-10-12T06:07:23.955Z,78.75
2018-10-12T06:08:24.177Z,84.38
2018-10-12T06:09:24.415Z,84.38
2018-10-12T06:10:24.636Z,90.00
2018-10-12T06:11:24.898Z,90.00
2018-10-12T06:12:25.093Z,95.63
2018-10-12T06:13:25.316Z,95.63
2018-10-12T06:14:25.545Z,101.25
2018-10-12T06:15:25.800Z,101.25
2018-10-12T06:16:25.989Z,106.88
2018-10-12T06:17:26.223Z,106.88
2018-10-12T06:18:26.451Z,112.50
2018-10-12T06:19:26.685Z,123.75
2018-10-12T06:20:26.907Z,123.75
2018-10-12T06:21:27.171Z,129.38
2018-10-12T06:22:27.355Z,129.38
2018-10-12T06:23:27.585Z,129.38
2018-10-12T06:24:27.809Z,135.00
2018-10-12T06:25:28.036Z,135.00
2018-10-12T06:26:28.266Z,140.63
2018-10-12T06:27:28.494Z,140.63
2018-10-12T06:28:28.721Z,146.25
2018-10-12T06:29:28.950Z,146.25
2018-10-12T06:30:29.182Z,151.88
2018-10-12T06:31:29.405Z,151.88
2018-10-12T06:32:29.630Z,157.50
2018-10-12T06:33:29.856Z,157.50
2018-10-12T06:34:30.081Z,163.13
2018-10-12T06:35:30.309Z,163.13
2018-10-12T06:36:30.538Z,168.75
2018-10-12T06:37:30.763Z,168.75
2018-10-12T06:38:30.991Z,168.75
2018-10-12T06:39:31.218Z,174.38
2018-10-12T06:40:31.446Z,174.38
2018-10-12T06:41:31.891Z,174.38
2018-10-12T06:42:31.900Z,180.00
2018-10-12T06:43:32.134Z,180.00
2018-10-12T06:44:32.359Z,180.00
2018-10-12T06:45:32.584Z,185.63
2018-10-12T06:46:32.872Z,185.63
2018-10-12T06:47:33.039Z,185.63
2018-10-12T06:48:33.271Z,191.25
2018-10-12T06:49:33.495Z,191.25
2018-10-12T06:50:33.727Z,191.25
2018-10-12T06:51:33.944Z,191.25
2018-10-12T06:52:34.172Z,196.88
2018-10-12T06:53:34.406Z,196.88
2018-10-12T06:54:34.626Z,196.88
2018-10-12T06:55:34.854Z,196.88
2018-10-12T06:56:35.088Z,202.50
2018-10-12T06:57:35.307Z,202.50
2018-10-12T06:58:35.536Z,202.50
2018-10-12T06:59:35.765Z,202.50
2018-10-12T07:00:35.991Z,202.50
2018-10-12T07:01:36.218Z,208.13
2018-10-12T07:02:36.446Z,208.13
2018-10-12T07:03:36.676Z,208.13
2018-10-12T07:04:36.900Z,208.13
2018-10-12T07:05:37.239Z,213.75
2018-10-12T07:06:37.357Z,213.75
2018-10-12T07:07:37.584Z,213.75
2018-10-12T07:08:37.816Z,213.75
2018-10-12T07:09:38.039Z,213.75
2018-10-12T07:10:38.265Z,213.75
2018-10-12T07:11:38.494Z,219.38
2018-10-12T07:12:38.721Z,219.38
2018-10-12T07:13:38.978Z,219.38
2018-10-12T07:14:39.178Z,219.38
2018-10-12T07:15:39.406Z,225.00
2018-10-12T07:16:39.632Z,225.00
2018-10-12T07:17:39.859Z,225.00
2018-10-12T07:18:40.087Z,225.00
2018-10-12T07:19:40.366Z,225.00
2018-10-12T07:20:40.539Z,230.63
2018-10-12T07:21:40.767Z,225.00
2018-10-12T07:22:40.994Z,225.00
2018-10-12T07:23:41.219Z,225.00
2018-10-12T07:24:41.450Z,225.00
2018-10-12T07:25:41.676Z,225.00
2018-10-12T07:26:41.905Z,230.63
2018-10-12T07:27:42.133Z,230.63
2018-10-12T07:28:42.362Z,230.63
2018-10-12T07:29:42.595Z,230.63
2018-10-12T07:30:42.824Z,230.63
2018-10-12T07:31:43.044Z,230.63
2018-10-12T07:32:43.271Z,236.25
2018-10-12T07:33:43.491Z,236.25
2018-10-12T07:34:43.720Z,236.25
2018-10-12T07:35:43.946Z,236.25
2018-10-12T07:36:44.175Z,236.25
2018-10-12T07:37:45.267Z,241.88
2018-10-12T07:38:44.622Z,241.88
2018-10-12T07:39:44.857Z,241.88
2018-10-12T07:40:45.079Z,241.88
2018-10-12T07:41:45.310Z,241.88
2018-10-12T07:42:45.537Z,241.88
2018-10-12T07:43:45.765Z,241.88
2018-10-12T07:44:45.996Z,247.50
2018-10-12T07:45:46.229Z,247.50
2018-10-12T07:46:46.456Z,247.50
2018-10-12T07:47:46.688Z,247.50
2018-10-12T07:48:46.918Z,247.50
2018-10-12T07:49:47.147Z,247.50
2018-10-12T07:50:47.363Z,247.50
2018-10-12T07:51:47.591Z,247.50
2018-10-12T07:52:47.822Z,247.50
2018-10-12T07:53:48.046Z,253.13
2018-10-12T07:54:48.280Z,253.13
2018-10-12T07:55:48.506Z,253.13
2018-10-12T07:56:48.732Z,253.13
2018-10-12T07:57:48.960Z,253.13
2018-10-12T07:58:49.189Z,253.13
2018-10-12T07:59:49.418Z,253.13
2018-10-12T08:00:49.850Z,253.13
2018-10-12T08:01:49.871Z,253.13
2018-10-12T08:02:50.102Z,253.13
2018-10-12T08:03:50.331Z,253.13
2018-10-12T08:04:50.558Z,258.75
2018-10-12T08:05:50.789Z,258.75
2018-10-12T08:06:51.062Z,258.75
2018-10-12T08:07:51.242Z,258.75
2018-10-12T08:08:51.470Z,258.75
2018-10-12T08:09:51.699Z,258.75
2018-10-12T08:10:51.930Z,258.75
2018-10-12T08:11:52.154Z,258.75
2018-10-12T08:12:52.382Z,258.75
2018-10-12T08:13:52.704Z,258.75
2018-10-12T08:14:52.837Z,258.75
2018-10-12T08:15:53.063Z,258.75
2018-10-12T08:16:53.292Z,264.38
2018-10-12T08:17:53.526Z,264.38
2018-10-12T08:18:53.759Z,264.38
2018-10-12T08:19:53.988Z,264.38
2018-10-12T08:20:54.217Z,264.38
2018-10-12T08:21:54.446Z,264.38
2018-10-12T08:22:54.674Z,264.38
2018-10-12T08:23:54.905Z,264.38
2018-10-12T08:24:55.132Z,264.38
2018-10-12T08:25:55.363Z,264.38
2018-10-12T08:26:55.601Z,264.38
2018-10-12T08:27:55.824Z,264.38
2018-10-12T08:28:56.051Z,264.38
2018-10-12T08:29:56.281Z,270.00
2018-10-12T08:30:56.506Z,270.00
2018-10-12T08:31:56.734Z,270.00
2018-10-12T08:32:56.987Z,270.00
2018-10-12T08:33:57.196Z,270.00
2018-10-12T08:34:57.425Z,275.63
2018-10-12T08:35:57.649Z,270.00
2018-10-12T08:36:57.879Z,270.00
2018-10-12T08:37:58.108Z,270.00
2018-10-12T08:38:58.344Z,270.00
2018-10-12T08:39:58.569Z,270.00
2018-10-12T08:40:58.797Z,270.00
2018-10-12T08:41:59.051Z,270.00
2018-10-12T08:42:59.259Z,270.00
2018-10-12T08:43:59.483Z,270.00
2018-10-12T08:44:59.717Z,270.00
2018-10-12T08:45:59.946Z,270.00
2018-10-12T08:47:00.181Z,270.00
2018-10-12T08:48:00.407Z,270.00
2018-10-12T08:49:00.638Z,270.00
2018-10-12T08:50:00.864Z,270.00
2018-10-12T08:51:01.111Z,270.00
2018-10-12T08:52:01.327Z,275.63
2018-10-12T08:53:01.562Z,275.63
2018-10-12T08:54:01.786Z,275.63
2018-10-12T08:55:02.013Z,275.63
2018-10-12T08:56:02.244Z,275.63
2018-10-12T08:57:02.472Z,275.63
2018-10-12T08:58:02.702Z,275.63
2018-10-12T08:59:02.933Z,275.63
2018-10-12T09:00:03.166Z,275.63
2018-10-12T09:01:03.394Z,275.63
2018-10-12T09:02:03.616Z,275.63
2018-10-12T09:03:03.904Z,275.63
2018-10-12T09:04:04.077Z,275.63
2018-10-12T09:05:04.307Z,275.63
2018-10-12T09:06:04.538Z,275.63
2018-10-12T09:07:04.766Z,275.63
2018-10-12T09:08:05.000Z,275.63
2018-10-12T09:09:05.232Z,275.63
2018-10-12T09:10:05.456Z,275.63
2018-10-12T09:11:05.686Z,275.63
2018-10-12T09:12:05.920Z,275.63
2018-10-12T09:13:06.143Z,275.63
2018-10-12T09:14:06.375Z,275.63
2018-10-12T09:15:06.606Z,275.63
2018-10-12T09:16:06.870Z,275.63
2018-10-12T09:17:07.063Z,275.63
2018-10-12T09:18:07.292Z,275.63
2018-10-12T09:19:07.514Z,275.63
2018-10-12T09:20:07.790Z,275.63
2018-10-12T09:21:07.978Z,275.63
2018-10-12T09:22:08.205Z,281.25
2018-10-12T09:23:08.433Z,281.25
2018-10-12T09:24:08.666Z,281.25
2018-10-12T09:25:08.897Z,281.25
2018-10-12T09:26:09.132Z,281.25
2018-10-12T09:27:09.383Z,281.25
2018-10-12T09:28:09.589Z,281.25
2018-10-12T09:29:09.823Z,281.25
2018-10-12T09:30:10.092Z,281.25
2018-10-12T09:31:10.281Z,281.25
2018-10-12T09:32:10.505Z,281.25
2018-10-12T09:33:10.737Z,281.25
2018-10-12T09:34:10.967Z,281.25
2018-10-12T09:35:11.200Z,281.25
2018-10-12T09:36:11.432Z,281.25
2018-10-12T09:37:11.660Z,281.25
2018-10-12T09:38:11.891Z,281.25
2018-10-12T09:39:12.116Z,281.25
2018-10-12T09:40:12.345Z,281.25
2018-10-12T09:41:12.572Z,281.25
2018-10-12T09:42:12.803Z,281.25
2018-10-12T09:43:13.090Z,281.25
2018-10-12T09:44:13.265Z,281.25
2018-10-12T09:45:13.495Z,281.25
2018-10-12T09:46:13.727Z,281.25
2018-10-12T09:47:13.955Z,281.25
2018-10-12T09:48:14.180Z,281.25
2018-10-12T09:49:14.408Z,281.25
2018-10-12T09:50:14.660Z,281.25
2018-10-12T09:51:14.868Z,281.25
2018-10-12T09:52:15.102Z,281.25
2018-10-12T09:53:15.332Z,286.88
2018-10-12T09:54:15.564Z,286.88
2018-10-12T09:55:15.795Z,281.25
2018-10-12T09:56:16.029Z,286.88
2018-10-12T09:57:16.261Z,281.25
2018-10-12T09:58:16.496Z,286.88
2018-10-12T09:59:16.720Z,286.88
2018-10-12T10:00:16.948Z,286.88
2018-10-12T10:01:17.185Z,286.88
2018-10-12T10:02:17.529Z,286.88
2018-10-12T10:03:17.646Z,286.88
2018-10-12T10:04:17.871Z,286.88
2018-10-12T10:05:18.104Z,286.88
2018-10-12T10:06:18.331Z,286.88
2018-10-12T10:07:18.564Z,286.88
2018-10-12T10:08:18.947Z,281.25
2018-10-12T10:09:19.023Z,281.25
2018-10-12T10:10:19.256Z,281.25
2018-10-12T10:11:19.487Z,286.88
2018-10-12T10:12:19.719Z,286.88
2018-10-12T10:13:19.955Z,286.88
2018-10-12T10:14:20.181Z,286.88
2018-10-12T10:15:20.477Z,286.88
2018-10-12T10:16:20.657Z,286.88
2018-10-12T10:17:20.876Z,286.88
2018-10-12T10:18:21.110Z,286.88
2018-10-12T10:19:21.395Z,286.88
2018-10-12T10:20:21.567Z,286.88
2018-10-12T10:21:21.800Z,286.88
2018-10-12T10:22:22.064Z,286.88
2018-10-12T10:23:22.261Z,286.88
2018-10-12T10:24:22.495Z,286.88
2018-10-12T10:25:22.730Z,286.88
2018-10-12T10:26:22.963Z,286.88
2018-10-12T10:27:23.193Z,292.50
2018-10-12T10:28:23.421Z,286.88
2018-10-12T10:29:23.762Z,292.50
2018-10-12T10:30:24.038Z,286.88
2018-10-12T10:31:24.113Z,286.88
2018-10-12T10:32:24.354Z,286.88
2018-10-12T10:33:24.575Z,286.88
2018-10-12T10:34:24.809Z,286.88
2018-10-12T10:35:25.043Z,286.88
2018-10-12T10:36:25.272Z,286.88
2018-10-12T10:37:25.505Z,286.88
2018-10-12T10:38:25.733Z,286.88
2018-10-12T10:39:25.960Z,286.88
2018-10-12T10:40:26.189Z,286.88
2018-10-12T10:41:26.425Z,286.88
2018-10-12T10:42:26.659Z,286.88
2018-10-12T10:43:26.886Z,286.88
2018-10-12T10:44:27.119Z,286.88
2018-10-12T10:45:27.351Z,286.88
2018-10-12T10:46:27.699Z,286.88
2018-10-12T10:47:27.816Z,286.88
2018-10-12T10:48:28.051Z,286.88
2018-10-12T10:49:28.283Z,286.88
2018-10-12T10:50:28.515Z,286.88
2018-10-12T10:51:28.745Z,286.88
2018-10-12T10:52:28.976Z,286.88
2018-10-12T10:53:29.215Z,286.88
2018-10-12T10:54:29.441Z,286.88
2018-10-12T10:55:29.672Z,286.88
2018-10-12T10:56:29.905Z,286.88
2018-10-12T10:57:30.139Z,286.88
2018-10-12T10:58:30.370Z,286.88
2018-10-12T10:59:30.602Z,286.88
2018-10-12T11:00:30.839Z,292.50
2018-10-12T11:01:31.074Z,286.88
2018-10-12T11:02:31.298Z,286.88
2018-10-12T11:03:31.527Z,286.88
2018-10-12T11:04:31.758Z,286.88
2018-10-12T11:05:31.988Z,286.88
2018-10-12T11:06:32.218Z,286.88
2018-10-12T11:07:32.451Z,286.88
2018-10-12T11:08:32.686Z,292.50
2018-10-12T11:09:32.916Z,286.88
2018-10-12T11:10:33.152Z,286.88
2018-10-12T11:11:33.386Z,286.88
2018-10-12T11:12:33.654Z,286.88
2018-10-12T11:13:33.849Z,286.88
2018-10-12T11:14:34.086Z,286.88
2018-10-12T11:15:34.335Z,286.88
2018-10-12T11:16:34.544Z,286.88
2018-10-12T11:17:34.780Z,286.88
2018-10-12T11:18:35.011Z,286.88
2018-10-12T11:19:35.295Z,286.88
2018-10-12T11:20:35.472Z,286.88
2018-10-12T11:21:35.702Z,286.88
2018-10-12T11:22:35.933Z,286.88
2018-10-12T11:23:36.162Z,286.88
2018-10-12T11:24:36.476Z,286.88
2018-10-12T11:25:36.626Z,286.88
2018-10-12T11:26:36.911Z,286.88
2018-10-12T11:27:37.094Z,286.88
2018-10-12T11:28:37.326Z,286.88
2018-10-12T11:29:37.556Z,286.88
2018-10-12T11:30:37.791Z,286.88
2018-10-12T11:31:38.028Z,286.88
2018-10-12T11:32:38.313Z,286.88
2018-10-12T11:33:38.496Z,286.88
2018-10-12T11:34:38.728Z,286.88
2018-10-12T11:35:38.953Z,286.88
2018-10-12T11:36:39.185Z,286.88
2018-10-12T11:37:39.420Z,286.88
2018-10-12T11:38:39.649Z,286.88
2018-10-12T11:39:39.882Z,286.88
2018-10-12T11:40:40.109Z,286.88
2018-10-12T11:41:40.339Z,286.88
2018-10-12T11:42:40.613Z,286.88
2018-10-12T11:43:40.799Z,286.88
2018-10-12T11:44:41.032Z,286.88
2018-10-12T11:45:41.262Z,292.50
2018-10-12T11:46:41.497Z,292.50
2018-10-12T11:47:41.720Z,286.88
2018-10-12T11:48:41.954Z,286.88
2018-10-12T11:49:42.181Z,286.88
2018-10-12T11:50:42.421Z,286.88
2018-10-12T11:51:42.654Z,286.88
2018-10-12T11:52:42.911Z,286.88
2018-10-12T11:53:43.129Z,286.88
2018-10-12T11:54:43.347Z,286.88
2018-10-12T11:55:43.576Z,281.25
2018-10-12T11:56:43.808Z,281.25
2018-10-12T11:57:44.037Z,281.25
2018-10-12T11:58:44.266Z,281.25
2018-10-12T11:59:44.503Z,281.25
2018-10-12T12:00:44.791Z,281.25
2018-10-12T12:01:44.969Z,281.25
2018-10-12T12:02:45.202Z,281.25
2018-10-12T12:03:45.436Z,281.25
2018-10-12T12:04:45.669Z,275.63
2018-10-12T12:05:45.906Z,281.25
2018-10-12T12:06:46.149Z,286.88
2018-10-12T12:07:46.369Z,281.25
2018-10-12T12:08:46.603Z,281.25
2018-10-12T12:09:46.834Z,281.25
2018-10-12T12:10:47.068Z,286.88
2018-10-12T12:11:47.298Z,281.25
2018-10-12T12:12:47.538Z,281.25
2018-10-12T12:13:47.904Z,286.88
2018-10-12T12:14:47.994Z,286.88
2018-10-12T12:15:48.229Z,281.25
2018-10-12T12:16:48.484Z,281.25
2018-10-12T12:17:48.700Z,286.88
2018-10-12T12:18:48.922Z,286.88
2018-10-12T12:19:49.163Z,286.88
2018-10-12T12:20:49.389Z,286.88
2018-10-12T12:21:49.618Z,281.25
2018-10-12T12:22:49.846Z,281.25
2018-10-12T12:23:50.081Z,281.25
2018-10-12T12:24:50.316Z,281.25
2018-10-12T12:25:50.553Z,281.25
2018-10-12T12:26:50.782Z,264.38
2018-10-12T12:27:51.016Z,258.75
2018-10-12T12:28:51.252Z,264.38
2018-10-12T12:29:51.482Z,264.38
2018-10-12T12:30:51.716Z,264.38
2018-10-12T12:31:51.950Z,264.38
2018-10-12T12:32:52.183Z,264.38
2018-10-12T12:33:52.418Z,264.38
2018-10-12T12:34:52.819Z,264.38
2018-10-12T12:35:53.212Z,264.38
2018-10-12T12:36:53.124Z,270.00
2018-10-12T12:37:53.368Z,270.00
2018-10-12T12:38:53.587Z,270.00
2018-10-12T12:39:53.817Z,264.38
2018-10-12T12:40:54.059Z,270.00
2018-10-12T12:41:54.281Z,264.38
2018-10-12T12:42:54.517Z,264.38
2018-10-12T12:43:54.746Z,270.00
2018-10-12T12:44:54.982Z,264.38
2018-10-12T12:45:55.215Z,264.38
2018-10-12T12:46:55.448Z,275.63
2018-10-12T12:47:55.802Z,270.00
2018-10-12T12:48:56.352Z,264.38
2018-10-12T12:49:56.158Z,270.00
2018-10-12T12:50:56.385Z,264.38
2018-10-12T12:51:56.616Z,270.00
2018-10-12T12:52:56.848Z,270.00